Terminal Aerodrome Forecast
Issued by NWS Charleston, WV

Current Version | Previous Version | Graphics & Text | Print | Product List | Glossary On
Versions: 1 2 3 4 5 6 7 8 9 10 11 12 13 14 15 16 17 18 19 20 21 22
000
FTUS41 KRLX 162000 AAA
TAFBKW
TAF AMD
KBKW 162013Z 1620/1718 15014G25KT P6SM BKN020
     FM162100 14015G23KT 6SM -SHRA OVC018
     FM162300 14013G21KT P6SM BKN018
     FM170800 17008KT P6SM BKN015
     FM171200 23004KT 6SM BR BKN012
     FM171600 28007KT 6SM HZ OVC012=

USA.gov is the U.S. government's official web portal to all federal, state and local government web resources and services.